Time;durP1;ratioP1;P1;durP2;ratioP2;P2;SDS_P1;SDS_P2;PMS_P1;PMS_P2;Temp;Humidity;BMP_temperature;BMP_pressure;BME280_temperature;BME280_humidity;BME280_pressure;Samples;Min_cycle;Max_cycle;Signal;HPM_P1;HPM_P2
2023/11/19 00:02:21;;;;;;;1.38;0.65;;;;;;;6.23;100.00;100135.78;5201676;28;20025;-72
2023/11/19 00:04:53;;;;;;;1.15;0.60;;;;;;;6.12;100.00;100122.22;5197336;28;20022;-71
2023/11/19 00:07:23;;;;;;;1.00;0.52;;;;;;;6.13;100.00;100118.72;5202563;28;20033;-72
2023/11/19 00:09:55;;;;;;;0.85;0.50;;;;;;;6.17;100.00;100117.75;5183515;28;20041;-72
2023/11/19 00:12:25;;;;;;;0.80;0.57;;;;;;;6.15;100.00;100125.59;5200781;28;20363;-70
2023/11/19 00:14:55;;;;;;;0.90;0.60;;;;;;;6.22;100.00;100124.53;5201377;28;20044;-72
2023/11/19 00:17:27;;;;;;;0.40;0.30;;;;;;;6.26;100.00;100114.94;5203047;28;20525;-71
2023/11/19 00:19:57;;;;;;;2.08;0.60;;;;;;;6.22;100.00;100101.19;5204667;28;20334;-72
2023/11/19 00:22:27;;;;;;;1.08;0.50;;;;;;;6.28;100.00;100107.97;5203965;28;20120;-72
2023/11/19 00:24:59;;;;;;;0.70;0.40;;;;;;;6.20;100.00;100091.72;5201420;28;20033;-71
2023/11/19 00:27:29;;;;;;;0.35;0.32;;;;;;;6.40;100.00;100086.88;5202575;28;20033;-72
2023/11/19 00:29:59;;;;;;;0.80;0.40;;;;;;;6.32;100.00;100081.03;5208897;28;20486;-71
2023/11/19 00:32:30;;;;;;;0.40;0.30;;;;;;;6.30;100.00;100090.59;5205685;28;20029;-72
2023/11/19 00:35:00;;;;;;;0.50;0.30;;;;;;;6.32;100.00;100083.63;5207092;28;20487;-72
2023/11/19 00:37:31;;;;;;;0.40;0.22;;;;;;;6.36;100.00;100064.47;5210399;28;20029;-72
2023/11/19 00:40:05;;;;;;;0.47;0.30;;;;;;;6.41;100.00;100062.63;5204641;28;20053;-72
2023/11/19 00:42:35;;;;;;;0.82;0.40;;;;;;;6.36;100.00;100046.31;5204493;28;20384;-71
2023/11/19 00:45:09;;;;;;;0.30;0.28;;;;;;;6.47;100.00;100042.56;5206476;28;20040;-72
2023/11/19 00:47:40;;;;;;;0.90;0.35;;;;;;;6.56;100.00;100029.31;5204893;28;20030;-72
2023/11/19 00:50:11;;;;;;;0.40;0.30;;;;;;;6.48;100.00;100020.91;5206635;28;20037;-71
2023/11/19 00:52:41;;;;;;;0.57;0.30;;;;;;;6.58;100.00;100019.72;5206496;28;20030;-72
2023/11/19 00:55:11;;;;;;;0.57;0.32;;;;;;;6.49;100.00;100020.00;5208806;28;20021;-72
2023/11/19 00:57:42;;;;;;;1.02;0.30;;;;;;;6.48;100.00;100010.53;5208393;28;20029;-72
2023/11/19 01:00:18;;;;;;;0.57;0.43;;;;;;;6.50;100.00;99994.88;5210677;28;20021;-72
2023/11/19 01:02:49;;;;;;;0.40;0.20;;;;;;;6.55;100.00;99996.47;5206053;28;20430;-72
2023/11/19 01:05:22;;;;;;;0.22;0.20;;;;;;;6.52;100.00;99999.16;5206956;28;20030;-72
2023/11/19 01:07:53;;;;;;;0.30;0.17;;;;;;;6.57;100.00;99973.06;5207447;28;20033;-72
2023/11/19 01:10:24;;;;;;;0.40;0.20;;;;;;;6.58;100.00;99977.38;5206176;28;20035;-71
2023/11/19 01:12:54;;;;;;;0.32;0.20;;;;;;;6.51;100.00;99981.88;5204386;28;20497;-72
2023/11/19 01:15:25;;;;;;;2.15;0.20;;;;;;;6.55;100.00;99985.22;5206143;28;20087;-71
2023/11/19 01:17:55;;;;;;;0.60;0.45;;;;;;;6.68;100.00;99983.97;5210208;28;20057;-71
2023/11/19 01:20:26;;;;;;;0.50;0.20;;;;;;;6.72;100.00;99980.38;5196947;28;20032;-72
2023/11/19 01:22:56;;;;;;;0.35;0.25;;;;;;;6.56;100.00;99969.63;5203147;28;20037;-71
2023/11/19 01:25:26;;;;;;;0.73;0.30;;;;;;;6.59;100.00;99985.09;5207585;28;20048;-72
2023/11/19 01:27:58;;;;;;;0.90;0.30;;;;;;;6.62;100.00;99969.41;5207023;28;20419;-71
2023/11/19 01:30:28;;;;;;;0.57;0.10;;;;;;;6.58;100.00;99964.38;5205696;28;20099;-72
2023/11/19 01:32:59;;;;;;;0.73;0.30;;;;;;;6.71;100.00;99961.38;5204302;28;20029;-72
2023/11/19 01:35:29;;;;;;;0.25;0.20;;;;;;;6.72;100.00;99954.41;5197979;28;20390;-72
2023/11/19 01:37:59;;;;;;;0.32;0.20;;;;;;;6.70;100.00;99948.44;5201316;28;20090;-72
2023/11/19 01:40:29;;;;;;;0.40;0.10;;;;;;;6.65;100.00;99933.00;5202114;28;20285;-71
2023/11/19 01:43:00;;;;;;;1.67;0.30;;;;;;;6.56;100.00;99933.28;5201763;28;20061;-72
2023/11/19 01:45:31;;;;;;;2.60;0.40;;;;;;;6.76;100.00;99923.13;5204764;28;20505;-72
2023/11/19 01:48:03;;;;;;;0.22;0.10;;;;;;;6.82;100.00;99933.34;5203908;23;20498;-75
2023/11/19 01:50:35;;;;;;;0.22;0.20;;;;;;;6.83;100.00;99916.88;5189611;28;20029;-75
2023/11/19 01:53:05;;;;;;;0.20;0.10;;;;;;;6.82;100.00;99909.97;5188019;28;20036;-75
2023/11/19 01:55:35;;;;;;;0.85;0.15;;;;;;;6.91;100.00;99914.03;5189450;28;20017;-75
2023/11/19 01:58:07;;;;;;;0.20;0.10;;;;;;;6.96;100.00;99896.56;5198323;28;20037;-75
2023/11/19 02:00:38;;;;;;;0.47;0.32;;;;;;;6.98;100.00;99899.94;5186106;28;20036;-74
2023/11/19 02:03:09;;;;;;;0.10;0.10;;;;;;;7.05;100.00;99891.91;5187741;28;20026;-75
2023/11/19 02:05:39;;;;;;;0.98;0.30;;;;;;;7.00;100.00;99877.38;5186875;28;20040;-75
2023/11/19 02:08:10;;;;;;;0.65;0.28;;;;;;;7.08;100.00;99873.63;5188903;28;20025;-74
2023/11/19 02:10:40;;;;;;;0.32;0.22;;;;;;;7.06;100.00;99869.38;5183445;28;20030;-75
2023/11/19 02:13:11;;;;;;;0.32;0.20;;;;;;;7.07;100.00;99871.09;5184015;28;20049;-74
2023/11/19 02:15:41;;;;;;;0.28;0.10;;;;;;;7.02;100.00;99870.38;5186871;28;20018;-75
2023/11/19 02:18:22;;;;;;;0.20;0.20;;;;;;;7.01;100.00;99866.06;5189958;28;20037;-74
2023/11/19 02:20:52;;;;;;;0.47;0.20;;;;;;;7.25;100.00;99854.91;5187762;28;20025;-75
2023/11/19 02:23:24;;;;;;;0.73;0.30;;;;;;;7.28;100.00;99857.38;5188109;28;20194;-75
2023/11/19 02:26:02;;;;;;;0.25;0.10;;;;;;;7.25;100.00;99867.88;5193748;28;20160;-75
2023/11/19 02:28:33;;;;;;;0.52;0.20;;;;;;;7.39;100.00;99866.50;5182653;28;20030;-72
2023/11/19 02:31:04;;;;;;;1.00;0.32;;;;;;;7.58;100.00;99854.56;5182864;28;20621;-74
2023/11/19 02:33:36;;;;;;;0.35;0.20;;;;;;;7.68;100.00;99856.78;5179382;28;20112;-75
2023/11/19 02:36:08;;;;;;;0.38;0.20;;;;;;;7.71;100.00;99846.28;5190133;28;20542;-75
2023/11/19 02:38:38;;;;;;;0.80;0.20;;;;;;;7.85;100.00;99841.44;5187646;28;20030;-75
2023/11/19 02:41:09;;;;;;;0.25;0.10;;;;;;;7.96;100.00;99836.69;5187848;28;20090;-75
2023/11/19 02:43:39;;;;;;;1.60;0.30;;;;;;;7.99;100.00;99831.38;5182387;28;20408;-75
2023/11/19 02:46:10;;;;;;;0.10;0.10;;;;;;;8.19;100.00;99834.09;5185424;28;20037;-74
2023/11/19 02:48:41;;;;;;;1.17;0.10;;;;;;;8.21;100.00;99832.28;5181827;28;20037;-75
2023/11/19 02:51:12;;;;;;;0.10;0.10;;;;;;;8.29;100.00;99819.84;5187163;28;20029;-75
2023/11/19 02:53:44;;;;;;;0.38;0.17;;;;;;;8.34;100.00;99814.44;5185356;28;20030;-75
2023/11/19 02:56:25;;;;;;;0.40;0.15;;;;;;;8.32;100.00;99824.94;5187602;28;20526;-75
2023/11/19 02:58:55;;;;;;;2.53;0.20;;;;;;;8.37;100.00;99798.72;5185723;28;20032;-75
2023/11/19 03:01:29;;;;;;;0.10;0.08;;;;;;;8.47;100.00;99797.44;5182977;28;20025;-75
2023/11/19 03:04:01;;;;;;;0.30;0.20;;;;;;;8.50;100.00;99792.97;5185094;28;20386;-72
2023/11/19 03:06:31;;;;;;;0.20;0.10;;;;;;;8.55;100.00;99798.00;5183423;28;20257;-75
2023/11/19 03:09:06;;;;;;;0.65;0.30;;;;;;;8.56;100.00;99784.06;5189007;28;20441;-75
2023/11/19 03:11:37;;;;;;;1.13;0.28;;;;;;;8.59;100.00;99789.97;5187225;28;20109;-74
2023/11/19 03:14:07;;;;;;;0.98;0.20;;;;;;;8.51;100.00;99763.41;5183409;28;20029;-75
2023/11/19 03:16:37;;;;;;;0.10;0.10;;;;;;;8.48;100.00;99755.75;5184554;28;20161;-75
2023/11/19 03:19:08;;;;;;;3.42;0.30;;;;;;;8.57;100.00;99770.97;5184698;28;20037;-75
2023/11/19 03:21:38;;;;;;;0.65;0.20;;;;;;;8.55;100.00;99754.56;5185192;28;20028;-75
2023/11/19 03:24:08;;;;;;;0.22;0.10;;;;;;;8.56;100.00;99753.66;5182861;28;20026;-75
2023/11/19 03:26:39;;;;;;;0.10;0.10;;;;;;;8.50;100.00;99748.72;5187972;28;20060;-75
2023/11/19 03:29:09;;;;;;;1.35;0.30;;;;;;;8.48;100.00;99753.13;5186427;28;20578;-74
2023/11/19 03:31:42;;;;;;;1.02;0.10;;;;;;;8.58;100.00;99740.59;5183648;28;20072;-75
2023/11/19 03:34:13;;;;;;;1.77;0.20;;;;;;;8.63;100.00;99731.69;5184673;28;20025;-74
2023/11/19 03:36:43;;;;;;;2.83;0.20;;;;;;;8.60;100.00;99733.56;5182409;28;20083;-75
2023/11/19 03:39:13;;;;;;;0.10;0.10;;;;;;;8.59;100.00;99717.06;5186120;28;20014;-75
2023/11/19 03:41:47;;;;;;;0.10;0.10;;;;;;;8.60;100.00;99724.00;5188796;28;20091;-75
2023/11/19 03:44:17;;;;;;;0.10;0.10;;;;;;;8.63;100.00;99718.66;5180721;28;20030;-75
2023/11/19 03:46:48;;;;;;;0.28;0.13;;;;;;;8.62;100.00;99721.31;5181227;28;20032;-75
2023/11/19 03:49:18;;;;;;;1.85;0.30;;;;;;;8.66;100.00;99718.53;5179913;28;20028;-75
2023/11/19 03:51:48;;;;;;;1.65;0.25;;;;;;;8.70;100.00;99703.63;5190079;28;20083;-75
2023/11/19 03:54:19;;;;;;;0.25;0.20;;;;;;;8.76;100.00;99712.00;5189816;28;20050;-75
2023/11/19 03:56:49;;;;;;;1.23;0.20;;;;;;;8.76;100.00;99708.56;5190892;28;20029;-75
2023/11/19 03:59:20;;;;;;;0.70;0.20;;;;;;;8.82;100.00;99708.31;5190315;28;20030;-75
2023/11/19 04:01:51;;;;;;;0.80;0.30;;;;;;;8.79;100.00;99714.50;5190919;28;20028;-75
2023/11/19 04:04:21;;;;;;;0.65;0.17;;;;;;;8.88;100.00;99718.47;5188718;28;20053;-75
2023/11/19 04:06:51;;;;;;;1.15;0.28;;;;;;;8.87;100.00;99722.00;5190763;28;20116;-75
2023/11/19 04:09:22;;;;;;;0.28;0.20;;;;;;;8.91;100.00;99708.75;5188939;28;20064;-75
2023/11/19 04:11:52;;;;;;;0.47;0.20;;;;;;;8.95;100.00;99702.53;5193606;28;20033;-75
2023/11/19 04:14:22;;;;;;;0.35;0.30;;;;;;;8.94;100.00;99708.66;5189856;28;20045;-75
2023/11/19 04:16:53;;;;;;;0.70;0.30;;;;;;;9.02;100.00;99688.31;5194050;28;20044;-75
2023/11/19 04:19:24;;;;;;;0.10;0.10;;;;;;;9.23;100.00;99679.53;5191824;28;20026;-75
2023/11/19 04:21:54;;;;;;;2.33;0.20;;;;;;;9.19;100.00;99672.78;5189316;28;20057;-75
2023/11/19 04:24:24;;;;;;;1.40;0.40;;;;;;;9.21;100.00;99669.19;5187093;28;20100;-74
2023/11/19 04:26:55;;;;;;;0.40;0.20;;;;;;;9.19;100.00;99678.00;5190377;28;20037;-75
2023/11/19 04:29:25;;;;;;;0.45;0.30;;;;;;;9.28;100.00;99682.81;5186494;28;20017;-74
2023/11/19 04:31:55;;;;;;;1.42;0.40;;;;;;;9.28;100.00;99686.25;5192786;28;20025;-75
2023/11/19 04:34:26;;;;;;;3.08;0.35;;;;;;;9.29;100.00;99681.91;5186211;28;20045;-74
2023/11/19 04:36:56;;;;;;;0.47;0.30;;;;;;;9.27;100.00;99676.72;5194933;28;20336;-75
2023/11/19 04:39:26;;;;;;;0.90;0.70;;;;;;;9.35;100.00;99679.00;5186407;28;20208;-74
2023/11/19 04:41:57;;;;;;;0.93;0.60;;;;;;;9.37;100.00;99678.03;5194609;28;20030;-73
2023/11/19 04:44:27;;;;;;;1.83;0.60;;;;;;;9.37;100.00;99680.63;5186614;28;20590;-74
2023/11/19 04:46:58;;;;;;;1.02;0.60;;;;;;;9.49;100.00;99676.63;5194343;28;20029;-73
2023/11/19 04:49:28;;;;;;;2.67;1.25;;;;;;;9.55;100.00;99686.75;5191841;28;20057;-75
2023/11/19 04:51:59;;;;;;;2.47;1.00;;;;;;;9.51;100.00;99685.22;5191898;28;20634;-73
2023/11/19 04:54:29;;;;;;;3.60;1.10;;;;;;;9.55;100.00;99682.41;5189631;28;20048;-75
2023/11/19 04:56:59;;;;;;;3.15;1.23;;;;;;;9.50;100.00;99688.75;5191695;28;21411;-74
2023/11/19 04:59:29;;;;;;;3.97;1.10;;;;;;;9.54;100.00;99695.50;5189825;28;20054;-75
2023/11/19 05:02:00;;;;;;;2.80;1.08;;;;;;;9.55;100.00;99686.75;5186255;28;20034;-73
2023/11/19 05:04:31;;;;;;;2.25;1.33;;;;;;;9.66;100.00;99682.75;5184255;28;20041;-75
2023/11/19 05:07:01;;;;;;;2.33;1.10;;;;;;;9.62;100.00;99678.59;5190104;28;20037;-74
2023/11/19 05:09:31;;;;;;;3.10;1.20;;;;;;;9.65;100.00;99685.44;5188847;28;20026;-75
2023/11/19 05:12:02;;;;;;;2.75;1.30;;;;;;;9.66;100.00;99684.53;5184769;28;20498;-74
2023/11/19 05:14:32;;;;;;;2.58;1.40;;;;;;;9.74;100.00;99691.06;5188215;28;20495;-76
2023/11/19 05:17:03;;;;;;;4.45;1.50;;;;;;;9.72;100.00;99681.63;5189667;28;20052;-75
2023/11/19 05:19:33;;;;;;;3.97;1.63;;;;;;;9.79;100.00;99683.88;5184952;28;20077;-75
2023/11/19 05:22:04;;;;;;;3.60;1.35;;;;;;;9.84;100.00;99678.44;5191463;28;20022;-75
2023/11/19 05:24:35;;;;;;;2.42;1.20;;;;;;;9.85;100.00;99674.91;5187058;28;20378;-75
2023/11/19 05:27:07;;;;;;;2.30;1.30;;;;;;;9.92;100.00;99665.88;5188246;28;20025;-75
2023/11/19 05:29:39;;;;;;;3.33;1.15;;;;;;;9.85;100.00;99669.69;5187789;28;20026;-75
2023/11/19 05:32:10;;;;;;;2.20;1.20;;;;;;;9.89;100.00;99660.81;5189536;28;20127;-72
2023/11/19 05:34:40;;;;;;;1.83;0.82;;;;;;;9.95;100.00;99670.94;5200146;28;20030;-75
2023/11/19 05:37:10;;;;;;;5.32;0.80;;;;;;;9.91;100.00;99653.75;5185939;28;20036;-72
2023/11/19 05:39:41;;;;;;;1.05;0.75;;;;;;;9.92;100.00;99656.28;5183852;28;20122;-75
2023/11/19 05:42:11;;;;;;;1.85;0.80;;;;;;;9.91;100.00;99657.22;5187454;28;20059;-75
2023/11/19 05:44:42;;;;;;;2.00;0.80;;;;;;;9.92;100.00;99652.81;5187049;28;20026;-75
2023/11/19 05:47:13;;;;;;;2.63;0.60;;;;;;;9.95;100.00;99655.28;5185127;28;20041;-75
2023/11/19 05:49:43;;;;;;;1.67;0.75;;;;;;;9.93;100.00;99651.91;5187465;28;20104;-72
2023/11/19 05:52:14;;;;;;;1.38;0.50;;;;;;;9.92;100.00;99642.38;5183341;28;20064;-76
2023/11/19 05:54:44;;;;;;;0.70;0.60;;;;;;;9.82;100.00;99635.94;5183104;28;20407;-72
2023/11/19 05:57:18;;;;;;;1.52;0.60;;;;;;;9.87;100.00;99637.41;5185367;28;20025;-75
2023/11/19 05:59:49;;;;;;;2.33;0.80;;;;;;;9.80;100.00;99632.56;5185532;28;20033;-74
2023/11/19 06:02:19;;;;;;;2.83;0.90;;;;;;;9.82;100.00;99643.75;5185413;28;20018;-75
2023/11/19 06:04:50;;;;;;;0.60;0.50;;;;;;;9.88;100.00;99641.72;5183736;28;20169;-75
2023/11/19 06:07:20;;;;;;;3.72;0.73;;;;;;;9.74;100.00;99645.88;5184509;28;20028;-75
2023/11/19 06:09:50;;;;;;;1.85;0.70;;;;;;;9.70;100.00;99655.63;5182149;28;20503;-75
2023/11/19 06:12:21;;;;;;;2.08;0.80;;;;;;;9.67;100.00;99645.31;5183311;28;20116;-75
2023/11/19 06:14:51;;;;;;;2.88;0.93;;;;;;;9.77;100.00;99635.28;5184408;28;20495;-76
2023/11/19 06:17:22;;;;;;;3.35;0.85;;;;;;;9.75;100.00;99652.78;5187155;28;20018;-75
2023/11/19 06:19:52;;;;;;;3.85;0.93;;;;;;;9.76;100.00;99644.88;5187027;28;20048;-75
2023/11/19 06:22:22;;;;;;;4.47;1.10;;;;;;;9.77;100.00;99643.09;5185430;28;20053;-74
2023/11/19 06:24:53;;;;;;;2.63;1.23;;;;;;;9.81;100.00;99642.06;5184082;28;20554;-75
2023/11/19 06:27:23;;;;;;;4.70;1.10;;;;;;;9.81;100.00;99648.13;5184539;28;20534;-75
2023/11/19 06:29:53;;;;;;;3.50;1.42;;;;;;;9.82;100.00;99648.97;5186048;28;20120;-75
2023/11/19 06:32:28;;;;;;;4.53;1.80;;;;;;;9.86;100.00;99647.91;5185519;28;20318;-73
2023/11/19 06:34:58;;;;;;;6.35;1.70;;;;;;;9.92;100.00;99645.84;5186472;28;20028;-75
2023/11/19 06:37:28;;;;;;;9.68;1.95;;;;;;;9.94;100.00;99649.22;5187803;28;20026;-75
2023/11/19 06:39:59;;;;;;;6.68;1.60;;;;;;;9.98;100.00;99649.94;5185460;28;20048;-74
2023/11/19 06:42:29;;;;;;;6.65;2.05;;;;;;;9.99;100.00;99651.63;5183259;28;20026;-75
2023/11/19 06:44:59;;;;;;;6.80;1.70;;;;;;;9.97;100.00;99650.88;5184256;28;20120;-74
2023/11/19 06:47:30;;;;;;;7.47;2.08;;;;;;;9.94;100.00;99653.59;5182116;28;20030;-75
2023/11/19 06:50:00;;;;;;;6.20;2.42;;;;;;;10.01;100.00;99662.84;5188036;28;20483;-74
2023/11/19 06:52:31;;;;;;;7.45;1.90;;;;;;;10.02;100.00;99669.78;5180374;28;20037;-75
2023/11/19 06:55:01;;;;;;;12.52;2.60;;;;;;;10.10;100.00;99675.47;5185755;28;20049;-74
2023/11/19 06:57:32;;;;;;;10.68;2.42;;;;;;;10.04;100.00;99676.63;5183161;28;20373;-75
2023/11/19 07:00:05;;;;;;;11.20;2.20;;;;;;;10.04;100.00;99671.41;5179900;28;20032;-75
2023/11/19 07:02:35;;;;;;;8.85;2.10;;;;;;;10.11;100.00;99678.00;5178909;28;20041;-73
2023/11/19 07:05:06;;;;;;;10.98;2.38;;;;;;;10.10;100.00;99671.09;5180058;28;20236;-75
2023/11/19 07:07:36;;;;;;;4.93;1.95;;;;;;;10.08;100.00;99662.50;5182518;28;20026;-75
2023/11/19 07:10:09;;;;;;;11.57;2.00;;;;;;;10.09;100.00;99669.41;5181816;28;20048;-75
2023/11/19 07:12:39;;;;;;;6.72;1.75;;;;;;;10.06;100.00;99671.31;5175290;28;20531;-74
2023/11/19 07:15:09;;;;;;;9.02;2.15;;;;;;;10.22;100.00;99674.88;5179145;28;20030;-75
2023/11/19 07:17:40;;;;;;;6.28;2.00;;;;;;;10.17;100.00;99671.66;5182582;28;20456;-75
2023/11/19 07:20:13;;;;;;;8.88;1.92;;;;;;;10.13;100.00;99675.34;5181528;28;20057;-75
2023/11/19 07:22:45;;;;;;;5.63;1.88;;;;;;;10.14;100.00;99671.81;5178496;28;20034;-75
2023/11/19 07:25:15;;;;;;;9.02;1.83;;;;;;;10.20;100.00;99682.78;5182545;28;20022;-75
2023/11/19 07:27:48;;;;;;;7.78;2.47;;;;;;;10.24;100.00;99683.50;5179962;28;20386;-75
2023/11/19 07:30:18;;;;;;;10.40;2.25;;;;;;;10.31;100.00;99677.06;5183576;28;20108;-76
2023/11/19 07:32:48;;;;;;;8.13;2.42;;;;;;;10.32;100.00;99683.97;5182880;28;20105;-75
2023/11/19 07:35:18;;;;;;;9.82;2.97;;;;;;;10.47;100.00;99684.06;5187503;28;20029;-75
2023/11/19 07:37:50;;;;;;;10.68;2.20;;;;;;;10.49;100.00;99690.06;5184794;28;20025;-75
2023/11/19 07:40:20;;;;;;;12.30;2.70;;;;;;;10.58;100.00;99688.75;5185488;28;20037;-76
2023/11/19 07:42:50;;;;;;;13.48;2.33;;;;;;;10.65;100.00;99685.75;5181940;28;20029;-72
2023/11/19 07:45:21;;;;;;;8.15;2.08;;;;;;;10.63;100.00;99679.78;5186062;28;20030;-75
2023/11/19 07:47:51;;;;;;;8.02;2.00;;;;;;;10.72;100.00;99673.22;5183886;28;20048;-72
2023/11/19 07:50:21;;;;;;;10.48;1.77;;;;;;;10.74;100.00;99671.38;5180610;28;20116;-75
2023/11/19 07:52:53;;;;;;;7.40;1.88;;;;;;;10.75;100.00;99686.13;5181303;28;20071;-73
2023/11/19 07:55:23;;;;;;;7.30;1.50;;;;;;;10.65;100.00;99683.16;5184140;28;20478;-76
2023/11/19 07:57:54;;;;;;;10.35;2.00;;;;;;;10.63;100.00;99686.75;5182938;28;20053;-74
2023/11/19 08:00:24;;;;;;;12.13;2.17;;;;;;;10.76;100.00;99698.28;5179616;28;20035;-72
2023/11/19 08:02:54;;;;;;;6.43;1.60;;;;;;;11.30;100.00;99691.06;5181058;28;20380;-75
2023/11/19 08:05:25;;;;;;;5.32;1.50;;;;;;;11.58;100.00;99697.41;5180809;28;20136;-74
2023/11/19 08:07:55;;;;;;;6.70;1.65;;;;;;;11.83;100.00;99703.03;5182176;28;20032;-75
2023/11/19 08:10:26;;;;;;;6.35;1.55;;;;;;;12.26;100.00;99699.72;5185628;28;20086;-75
2023/11/19 08:12:57;;;;;;;5.72;1.63;;;;;;;12.96;100.00;99699.16;5183440;28;20029;-75
2023/11/19 08:15:27;;;;;;;9.95;2.10;;;;;;;13.39;100.00;99701.75;5184583;28;20022;-75
2023/11/19 08:17:57;;;;;;;6.30;1.52;;;;;;;13.73;100.00;99696.94;5183476;28;20022;-76
2023/11/19 08:20:28;;;;;;;6.28;1.23;;;;;;;14.11;99.92;99695.34;5182344;28;20026;-76
2023/11/19 08:22:58;;;;;;;7.07;1.55;;;;;;;13.81;97.26;99706.97;5185104;28;20112;-76
2023/11/19 08:25:28;;;;;;;8.57;1.63;;;;;;;13.30;100.00;99697.88;5172448;28;20032;-75
2023/11/19 08:28:00;;;;;;;8.18;1.55;;;;;;;12.98;100.00;99705.16;5182938;28;20120;-75
2023/11/19 08:30:30;;;;;;;10.68;2.35;;;;;;;13.13;100.00;99711.19;5182092;28;20307;-75
2023/11/19 08:33:02;;;;;;;10.40;1.85;;;;;;;12.75;100.00;99709.06;5182266;28;20032;-74
2023/11/19 08:35:33;;;;;;;11.85;2.00;;;;;;;12.67;100.00;99711.28;5183929;28;20017;-76
2023/11/19 08:38:03;;;;;;;10.95;2.22;;;;;;;12.57;100.00;99704.91;5185965;28;20283;-75
2023/11/19 08:40:33;;;;;;;11.45;2.13;;;;;;;12.55;100.00;99709.38;5185444;28;20017;-75
2023/11/19 08:43:04;;;;;;;7.70;1.88;;;;;;;12.60;100.00;99702.09;5183236;28;20042;-75
2023/11/19 08:45:34;;;;;;;19.05;2.90;;;;;;;12.60;100.00;99703.88;5182068;28;20642;-73
2023/11/19 08:48:05;;;;;;;17.38;2.30;;;;;;;12.61;100.00;99714.28;5181751;28;20419;-75
2023/11/19 08:50:35;;;;;;;17.75;2.75;;;;;;;12.72;100.00;99711.03;5184052;28;20033;-73
2023/11/19 08:53:06;;;;;;;12.05;2.85;;;;;;;12.84;100.00;99716.41;5182245;28;20030;-75
2023/11/19 08:55:37;;;;;;;11.45;2.45;;;;;;;12.89;100.00;99714.38;5184925;28;20507;-73
2023/11/19 08:58:07;;;;;;;19.55;5.05;;;;;;;12.84;100.00;99715.56;5185259;28;20026;-75
2023/11/19 09:00:37;;;;;;;12.50;2.97;;;;;;;12.81;100.00;99716.56;5182734;28;20491;-73
2023/11/19 09:03:09;;;;;;;12.63;2.58;;;;;;;12.64;100.00;99716.72;5179387;28;20032;-75
2023/11/19 09:05:39;;;;;;;17.10;2.58;;;;;;;12.72;100.00;99732.84;5182534;28;20694;-75
2023/11/19 09:08:11;;;;;;;18.73;3.55;;;;;;;12.79;100.00;99723.69;5182913;28;20093;-75
2023/11/19 09:10:41;;;;;;;16.08;3.10;;;;;;;12.67;100.00;99745.38;5183721;28;20030;-75
2023/11/19 09:13:12;;;;;;;17.85;2.60;;;;;;;12.71;100.00;99739.03;5179274;28;20327;-75
2023/11/19 09:15:42;;;;;;;21.38;3.58;;;;;;;12.61;100.00;99734.41;5184957;28;20108;-75
2023/11/19 09:18:13;;;;;;;15.27;2.63;;;;;;;12.54;100.00;99736.53;5182846;28;20037;-75
2023/11/19 09:20:44;;;;;;;23.25;3.03;;;;;;;12.54;100.00;99741.78;5183684;28;20677;-75
2023/11/19 09:23:14;;;;;;;20.48;3.03;;;;;;;12.60;100.00;99746.66;5183443;28;20032;-75
2023/11/19 09:25:45;;;;;;;14.90;2.38;;;;;;;12.58;100.00;99743.28;5180816;28;20037;-75
2023/11/19 09:28:15;;;;;;;19.80;3.33;;;;;;;12.69;100.00;99740.91;5182401;28;20025;-75
2023/11/19 09:30:45;;;;;;;15.68;2.78;;;;;;;12.73;100.00;99744.16;5180637;28;21355;-75
2023/11/19 09:33:15;;;;;;;19.65;2.67;;;;;;;12.74;100.00;99751.97;5184056;28;20041;-75
2023/11/19 09:35:46;;;;;;;19.52;3.25;;;;;;;12.77;100.00;99750.94;5183675;28;20037;-75
2023/11/19 09:38:17;;;;;;;19.70;3.08;;;;;;;12.70;100.00;99750.47;5184357;28;23396;-75
2023/11/19 09:40:47;;;;;;;24.17;2.75;;;;;;;12.77;100.00;99758.81;5182987;28;20260;-73
2023/11/19 09:43:18;;;;;;;15.75;2.90;;;;;;;12.79;100.00;99762.19;5182637;28;20462;-75
2023/11/19 09:45:52;;;;;;;19.70;3.53;;;;;;;12.75;100.00;99758.03;5184308;28;20049;-74
2023/11/19 09:48:24;;;;;;;16.55;3.45;;;;;;;12.72;100.00;99759.06;5180921;28;20026;-74
2023/11/19 09:50:55;;;;;;;17.77;3.15;;;;;;;12.73;100.00;99776.50;5184597;28;20073;-74
2023/11/19 09:53:25;;;;;;;25.60;3.42;;;;;;;12.73;100.00;99771.25;5181336;28;20021;-72
2023/11/19 09:55:56;;;;;;;21.83;3.10;;;;;;;12.60;100.00;99765.00;5184948;28;20018;-75
2023/11/19 09:58:27;;;;;;;18.25;2.80;;;;;;;12.64;100.00;99765.69;5181160;28;20076;-74
2023/11/19 10:00:59;;;;;;;17.17;3.00;;;;;;;12.77;100.00;99764.88;5181589;28;20407;-74
2023/11/19 10:03:33;;;;;;;17.23;3.22;;;;;;;12.93;100.00;99746.50;5176302;28;20029;-75
2023/11/19 10:06:09;;;;;;;16.30;2.45;;;;;;;13.04;100.00;99747.59;5181142;28;20403;-74
2023/11/19 10:08:39;;;;;;;20.65;3.90;;;;;;;13.05;100.00;99752.75;5181942;28;20034;-74
2023/11/19 10:11:13;;;;;;;22.10;3.28;;;;;;;13.00;99.66;99756.56;5181299;28;20030;-74
2023/11/19 10:13:47;;;;;;;20.95;3.00;;;;;;;13.00;99.36;99753.94;5175798;28;20034;-75
2023/11/19 10:16:18;;;;;;;22.23;2.95;;;;;;;12.95;99.11;99760.41;5179448;28;20028;-75
2023/11/19 10:18:50;;;;;;;22.35;3.17;;;;;;;13.04;99.47;99760.72;5181411;28;20029;-74
2023/11/19 10:21:22;;;;;;;24.80;3.13;;;;;;;13.13;98.48;99757.53;5178989;28;20505;-75
2023/11/19 10:23:54;;;;;;;20.80;2.83;;;;;;;13.18;98.13;99752.84;5180044;28;20083;-75
2023/11/19 10:26:26;;;;;;;23.45;3.25;;;;;;;13.24;97.56;99753.34;5180693;28;20133;-73
2023/11/19 10:28:56;;;;;;;20.17;3.20;;;;;;;13.20;96.99;99754.47;5181451;28;20661;-73
2023/11/19 10:31:26;;;;;;;25.50;3.70;;;;;;;13.11;97.90;99754.16;5178277;28;20033;-75
2023/11/19 10:33:57;;;;;;;16.02;2.60;;;;;;;13.22;97.53;99757.00;5179985;28;20025;-75
2023/11/19 10:36:43;;;;;;;17.65;2.90;;;;;;;13.25;97.85;99754.19;5182134;28;20036;-74
2023/11/19 10:39:14;;;;;;;22.95;2.92;;;;;;;13.47;97.07;99759.84;5180764;28;20490;-75
2023/11/19 10:41:44;;;;;;;23.70;3.50;;;;;;;13.49;97.44;99750.09;5181726;28;20033;-75
2023/11/19 10:44:33;;;;;;;19.92;3.08;;;;;;;13.47;96.89;99750.22;5174980;28;20025;-72
2023/11/19 10:47:05;;;;;;;14.02;2.70;;;;;;;13.41;96.41;99749.72;5175468;28;20034;-75
2023/11/19 10:49:36;;;;;;;18.90;3.28;;;;;;;13.38;95.55;99747.28;5178783;28;20065;-75
2023/11/19 10:52:09;;;;;;;20.60;2.88;;;;;;;13.35;95.97;99750.94;5178950;28;20132;-75
2023/11/19 10:54:44;;;;;;;22.45;3.13;;;;;;;13.36;95.60;99751.75;5180644;28;20115;-75
2023/11/19 10:57:19;;;;;;;20.35;3.78;;;;;;;13.42;95.54;99754.03;5181285;28;20396;-75
2023/11/19 10:59:52;;;;;;;;;;;;;;;13.45;94.52;99745.97;5178383;28;20036;-76
2023/11/19 11:02:24;;;;;;;14.23;2.92;;;;;;;13.64;94.74;99743.91;5178130;28;20031;-75
2023/11/19 11:04:55;;;;;;;21.95;3.30;;;;;;;13.84;93.19;99743.53;5175820;28;20125;-75
2023/11/19 11:07:26;;;;;;;15.35;2.80;;;;;;;13.81;92.50;99741.09;5184389;28;20483;-73
2023/11/19 11:09:57;;;;;;;14.18;2.40;;;;;;;13.81;91.90;99735.84;5181129;28;20022;-75
2023/11/19 11:12:28;;;;;;;15.55;2.47;;;;;;;13.79;92.28;99738.59;5178659;28;20500;-75
2023/11/19 11:14:59;;;;;;;14.57;2.47;;;;;;;13.77;92.46;99743.06;5177526;28;20033;-74
2023/11/19 11:17:32;;;;;;;10.90;2.17;;;;;;;13.58;92.27;99739.88;5179691;28;20541;-74
2023/11/19 11:20:04;;;;;;;10.77;2.17;;;;;;;13.42;92.18;99741.75;5178368;28;20029;-71
2023/11/19 11:23:02;;;;;;;14.00;2.45;;;;;;;13.32;92.92;99745.88;5178613;28;20084;-72
2023/11/19 11:25:46;;;;;;;16.60;2.45;;;;;;;13.33;93.96;99755.44;5183058;28;20485;-75
2023/11/19 11:28:26;;;;;;;16.80;2.40;;;;;;;13.24;94.27;99745.47;5177289;28;20037;-75
2023/11/19 11:31:10;;;;;;;13.68;2.28;;;;;;;13.15;95.76;99743.41;5181136;28;20029;-72
2023/11/19 11:33:59;;;;;;;16.75;2.30;;;;;;;13.17;95.75;99746.78;5178679;28;20040;-75
2023/11/19 11:36:36;;;;;;;17.38;2.85;;;;;;;13.06;97.27;99750.97;5177251;28;20036;-75
2023/11/19 11:39:07;;;;;;;15.68;2.70;;;;;;;13.08;97.84;99751.72;5179116;28;20552;-74
2023/11/19 11:41:38;;;;;;;15.73;2.90;;;;;;;13.06;97.63;99753.59;5179114;28;20038;-74
2023/11/19 11:44:08;;;;;;;18.15;2.72;;;;;;;13.07;97.86;99752.66;5182999;28;20033;-74
2023/11/19 11:46:39;;;;;;;15.43;3.05;;;;;;;13.13;97.84;99754.91;5179409;28;20040;-75
2023/11/19 11:49:10;;;;;;;19.27;3.05;;;;;;;13.12;98.31;99753.22;5176535;28;20120;-74